Time;durP1;ratioP1;P1;durP2;ratioP2;P2;SDS_P1;SDS_P2;PMS_P1;PMS_P2;Temp;Humidity;BMP_temperature;BMP_pressure;BME280_temperature;BME280_humidity;BME280_pressure;Samples;Min_cycle;Max_cycle;Signal;HPM_P1;HPM_P2
2022/07/27 00:01:16;;;;;;;1.30;1.20;;;;;;;24.71;100.00;94992.25;5132546;28;20454;-64
2022/07/27 00:03:46;;;;;;;0.60;0.60;;;;;;;24.69;100.00;94988.34;5132227;28;20430;-64
2022/07/27 00:06:14;;;;;;;0.73;0.73;;;;;;;24.71;100.00;94989.53;5132846;28;20422;-64
2022/07/27 00:08:43;;;;;;;0.63;0.63;;;;;;;24.59;100.00;94987.81;5132128;28;20466;-64
2022/07/27 00:11:12;;;;;;;0.50;0.40;;;;;;;24.60;100.00;94980.47;5132556;27;20438;-64
2022/07/27 00:13:41;;;;;;;0.90;0.43;;;;;;;24.55;100.00;94980.78;5135417;27;20513;-63
2022/07/27 00:16:09;;;;;;;1.03;1.03;;;;;;;24.51;100.00;94990.81;5135846;27;20461;-63
2022/07/27 00:18:39;;;;;;;2.73;0.60;;;;;;;24.64;100.00;94986.75;5135566;27;20497;-64
2022/07/27 00:21:08;;;;;;;1.60;1.50;;;;;;;24.55;100.00;94989.72;5135687;27;20421;-63
2022/07/27 00:23:36;;;;;;;0.90;0.90;;;;;;;24.54;100.00;94987.38;5135657;27;20525;-63
2022/07/27 00:26:05;;;;;;;0.97;0.73;;;;;;;24.53;100.00;94991.22;5135626;27;20436;-63
2022/07/27 00:28:33;;;;;;;0.50;0.43;;;;;;;24.39;100.00;94991.00;5135816;27;20533;-63
2022/07/27 00:31:02;;;;;;;0.80;0.53;;;;;;;24.34;100.00;94985.88;5135840;27;20832;-63
2022/07/27 00:33:30;;;;;;;0.70;0.70;;;;;;;24.42;100.00;94992.97;5135423;27;20513;-63
2022/07/27 00:36:01;;;;;;;0.50;0.47;;;;;;;24.42;100.00;94990.28;5135532;27;20414;-63
2022/07/27 00:38:29;;;;;;;0.40;0.37;;;;;;;24.35;100.00;94993.66;5135643;27;20477;-63
2022/07/27 00:40:58;;;;;;;1.07;0.97;;;;;;;24.40;100.00;94984.44;5135659;27;20427;-63
2022/07/27 00:43:26;;;;;;;1.07;0.40;;;;;;;24.34;100.00;94988.59;5135235;27;20845;-63
2022/07/27 00:45:55;;;;;;;0.90;0.90;;;;;;;24.28;100.00;94985.44;5135323;27;20543;-62
2022/07/27 00:48:23;;;;;;;0.80;0.57;;;;;;;24.22;100.00;94992.31;5134496;27;20462;-63
2022/07/27 00:50:56;;;;;;;0.80;0.47;;;;;;;24.08;100.00;94994.00;5135572;27;20411;-63
2022/07/27 00:53:26;;;;;;;0.70;0.63;;;;;;;24.14;100.00;94989.84;5135093;27;20545;-63
2022/07/27 00:55:54;;;;;;;3.10;0.57;;;;;;;23.83;100.00;94986.22;5135166;27;20414;-63
2022/07/27 00:58:24;;;;;;;0.50;0.40;;;;;;;23.57;100.00;94982.66;5134998;27;20444;-63
2022/07/27 01:00:52;;;;;;;2.00;0.30;;;;;;;23.79;100.00;94990.00;5134989;27;20498;-62
2022/07/27 01:03:21;;;;;;;2.83;1.00;;;;;;;23.72;100.00;94987.97;5134794;27;21011;-63
2022/07/27 01:05:57;;;;;;;6.37;0.60;;;;;;;23.88;100.00;94982.44;5134866;27;20414;-63
2022/07/27 01:08:30;;;;;;;0.73;0.73;;;;;;;23.98;100.00;94982.59;5135085;27;20779;-63
2022/07/27 01:10:59;;;;;;;0.53;0.40;;;;;;;24.07;100.00;94978.88;5134775;27;20944;-63
2022/07/27 01:13:28;;;;;;;0.90;0.57;;;;;;;24.09;100.00;94979.31;5134742;27;20492;-63
2022/07/27 01:15:57;;;;;;;0.50;0.40;;;;;;;24.06;100.00;94978.06;5134365;27;20458;-63
2022/07/27 01:18:28;;;;;;;2.30;1.17;;;;;;;24.04;100.00;94972.25;5134379;27;20557;-62
2022/07/27 01:20:58;;;;;;;0.60;0.60;;;;;;;23.92;100.00;94978.66;5134533;27;21107;-63
2022/07/27 01:23:31;;;;;;;0.73;0.73;;;;;;;23.96;100.00;94979.47;5134258;27;20459;-63
2022/07/27 01:26:00;;;;;;;0.97;0.80;;;;;;;23.69;100.00;94977.84;5134932;27;20435;-63
2022/07/27 01:28:28;;;;;;;0.50;0.37;;;;;;;23.81;100.00;94985.78;5134325;27;20491;-63
2022/07/27 01:30:57;;;;;;;0.93;0.83;;;;;;;23.70;100.00;94982.13;5134359;27;20992;-63
2022/07/27 01:33:28;;;;;;;4.10;0.60;;;;;;;23.48;100.00;94984.81;5134517;27;20470;-62
2022/07/27 01:35:57;;;;;;;1.33;1.23;;;;;;;23.31;100.00;94980.59;5134210;27;20537;-63
2022/07/27 01:38:27;;;;;;;1.53;1.43;;;;;;;23.50;100.00;94982.53;5134157;27;20470;-62
2022/07/27 01:40:55;;;;;;;1.30;1.20;;;;;;;23.20;100.00;94983.09;5134208;27;20470;-62
2022/07/27 01:43:24;;;;;;;1.20;1.20;;;;;;;23.21;100.00;94976.56;5134029;27;20513;-63
2022/07/27 01:45:52;;;;;;;1.10;0.90;;;;;;;23.14;100.00;94972.94;5134033;27;20522;-63
2022/07/27 01:48:21;;;;;;;1.20;0.60;;;;;;;22.88;100.00;94956.56;5133996;27;20545;-63
2022/07/27 01:50:49;;;;;;;0.50;0.40;;;;;;;23.21;100.00;94973.84;5134273;27;20456;-63
2022/07/27 01:53:18;;;;;;;0.80;0.80;;;;;;;23.41;100.00;94971.16;5133860;27;20466;-63
2022/07/27 01:55:49;;;;;;;0.63;0.63;;;;;;;23.48;100.00;94974.00;5133907;27;20454;-63
2022/07/27 01:58:18;;;;;;;0.80;0.80;;;;;;;23.46;100.00;94971.63;5133846;27;20875;-63
2022/07/27 02:00:47;;;;;;;0.90;0.70;;;;;;;23.42;100.00;94981.63;5134073;27;20506;-63
2022/07/27 02:03:16;;;;;;;0.60;0.50;;;;;;;23.46;100.00;94981.66;5134049;27;20430;-63
2022/07/27 02:05:44;;;;;;;0.60;0.60;;;;;;;23.19;100.00;94986.16;5133735;27;20462;-63
2022/07/27 02:08:13;;;;;;;0.63;0.53;;;;;;;23.22;100.00;94977.34;5133668;27;20414;-64
2022/07/27 02:13:25;;;;;;;3.60;0.80;;;;;;;22.31;100.00;94992.34;5132824;27;20853;-63
2022/07/27 02:15:53;;;;;;;0.80;0.80;;;;;;;22.35;100.00;94990.50;5133463;27;20478;-63
2022/07/27 02:18:22;;;;;;;1.13;1.03;;;;;;;22.61;100.00;94986.09;5133492;27;20513;-63
2022/07/27 02:21:00;;;;;;;0.50;0.40;;;;;;;22.61;100.00;94986.09;5133384;27;20487;-64
2022/07/27 02:23:30;;;;;;;1.63;0.50;;;;;;;22.64;100.00;94985.41;5133588;27;20459;-63
2022/07/27 02:25:58;;;;;;;1.37;0.40;;;;;;;22.77;100.00;94989.56;5133270;27;20538;-63
2022/07/27 02:28:28;;;;;;;0.97;0.97;;;;;;;22.49;100.00;94980.81;5133576;27;20510;-63
2022/07/27 02:30:56;;;;;;;1.33;1.27;;;;;;;22.68;100.00;94978.19;5133263;27;20418;-63
2022/07/27 02:33:25;;;;;;;0.80;0.73;;;;;;;22.89;100.00;94980.56;5133437;27;20884;-63
2022/07/27 02:35:53;;;;;;;1.80;0.97;;;;;;;22.98;100.00;94983.81;5132819;27;20465;-63
2022/07/27 02:38:22;;;;;;;0.60;0.50;;;;;;;23.09;100.00;94973.22;5133422;27;20423;-63
2022/07/27 02:40:50;;;;;;;0.80;0.60;;;;;;;23.11;100.00;94987.94;5133023;27;20807;-62
2022/07/27 02:43:18;;;;;;;0.70;0.60;;;;;;;23.03;100.00;94986.22;5132597;27;20526;-63
2022/07/27 02:45:48;;;;;;;0.60;0.50;;;;;;;23.06;100.00;94976.63;5133250;27;20502;-63
2022/07/27 02:48:17;;;;;;;0.93;0.93;;;;;;;23.01;100.00;94985.03;5132962;27;20426;-63
2022/07/27 02:50:45;;;;;;;0.67;0.60;;;;;;;23.04;100.00;94984.31;5133176;27;20462;-63
2022/07/27 02:53:14;;;;;;;1.00;1.00;;;;;;;23.05;100.00;94991.28;5132971;27;20477;-63
2022/07/27 02:55:42;;;;;;;2.00;1.23;;;;;;;23.05;100.00;94985.88;5133179;27;20530;-63
2022/07/27 02:58:10;;;;;;;0.83;0.83;;;;;;;23.00;100.00;94991.56;5132880;27;20458;-63
2022/07/27 03:00:39;;;;;;;1.53;1.43;;;;;;;23.04;100.00;94990.50;5133168;28;20506;-63
2022/07/27 03:03:09;;;;;;;1.00;0.57;;;;;;;23.07;100.00;94989.78;5132881;28;20518;-62
2022/07/27 03:05:38;;;;;;;0.63;0.57;;;;;;;23.11;100.00;95003.38;5133092;28;20501;-63
2022/07/27 03:08:06;;;;;;;1.13;0.50;;;;;;;23.05;100.00;94994.75;5133327;28;20454;-63
2022/07/27 03:10:35;;;;;;;0.97;0.87;;;;;;;22.98;100.00;94991.91;5132736;28;21121;-63
2022/07/27 03:13:03;;;;;;;0.70;0.50;;;;;;;22.92;100.00;94995.28;5132944;28;20514;-63
2022/07/27 03:15:33;;;;;;;0.97;0.87;;;;;;;22.96;100.00;94998.81;5132620;28;20462;-63
2022/07/27 03:18:02;;;;;;;1.47;1.30;;;;;;;22.94;100.00;94993.78;5132712;28;20523;-63
2022/07/27 03:20:32;;;;;;;0.73;0.70;;;;;;;22.76;100.00;94989.91;5132681;28;20506;-63
2022/07/27 03:23:00;;;;;;;0.43;0.30;;;;;;;22.76;100.00;95000.72;5132828;28;20462;-63
2022/07/27 03:25:29;;;;;;;0.60;0.40;;;;;;;22.99;100.00;94998.91;5132882;28;20505;-51
2022/07/27 03:27:57;;;;;;;0.40;0.30;;;;;;;23.17;100.00;95001.97;5132913;28;20450;-51
2022/07/27 03:30:31;;;;;;;0.90;0.90;;;;;;;23.17;100.00;95005.44;5132597;28;20509;-51
2022/07/27 03:32:59;;;;;;;0.50;0.50;;;;;;;23.24;100.00;94999.41;5132812;28;20434;-51
2022/07/27 03:35:28;;;;;;;1.07;1.00;;;;;;;23.22;100.00;94999.75;5132457;28;20913;-51
2022/07/27 03:37:58;;;;;;;1.13;0.60;;;;;;;23.30;100.00;94990.63;5132061;28;20562;-51
2022/07/27 03:40:28;;;;;;;0.60;0.60;;;;;;;23.40;100.00;95000.13;5132307;28;20505;-51
2022/07/27 03:42:57;;;;;;;2.20;1.00;;;;;;;23.33;100.00;94989.91;5132255;28;20431;-51
2022/07/27 03:45:25;;;;;;;0.57;0.57;;;;;;;23.32;100.00;94993.00;5132133;28;20978;-51
2022/07/27 03:47:54;;;;;;;0.90;0.90;;;;;;;23.36;100.00;94999.28;5133940;27;20473;-51
2022/07/27 03:50:22;;;;;;;0.70;0.50;;;;;;;23.26;100.00;94984.38;5136261;27;20450;-51
2022/07/27 03:52:51;;;;;;;1.10;0.40;;;;;;;23.40;100.00;95002.84;5135860;27;20458;-51
2022/07/27 03:55:21;;;;;;;0.80;0.80;;;;;;;23.41;100.00;94996.28;5136094;27;20569;-51
2022/07/27 03:57:51;;;;;;;0.80;0.80;;;;;;;23.46;100.00;95000.59;5135980;27;20434;-51
2022/07/27 04:00:20;;;;;;;1.13;0.90;;;;;;;23.47;100.00;95000.25;5136204;27;20437;-51
2022/07/27 04:02:48;;;;;;;0.87;0.87;;;;;;;23.20;100.00;94998.53;5135955;27;20431;-51
2022/07/27 04:05:19;;;;;;;1.90;1.17;;;;;;;22.50;100.00;95003.19;5135787;27;20430;-51
2022/07/27 04:07:47;;;;;;;0.67;0.50;;;;;;;22.87;100.00;95004.41;5135857;27;20453;-51
2022/07/27 04:10:23;;;;;;;1.43;1.33;;;;;;;22.89;100.00;95004.09;5135628;27;20425;-51
2022/07/27 04:12:58;;;;;;;1.40;1.30;;;;;;;22.91;100.00;95005.28;5135472;27;20422;-52
2022/07/27 04:15:28;;;;;;;0.53;0.53;;;;;;;23.22;100.00;94994.34;5135381;27;20484;-52
2022/07/27 04:17:56;;;;;;;0.63;0.63;;;;;;;23.41;100.00;94993.56;5135391;27;20545;-51
2022/07/27 04:20:25;;;;;;;2.20;1.37;;;;;;;23.45;100.00;94997.13;5135700;27;20448;-51
2022/07/27 04:22:54;;;;;;;1.50;1.40;;;;;;;23.32;100.00;95006.50;5135177;27;20993;-51
2022/07/27 04:25:23;;;;;;;1.13;1.03;;;;;;;23.44;100.00;95006.38;5135522;27;20912;-51
2022/07/27 04:27:54;;;;;;;0.97;0.93;;;;;;;23.35;100.00;95003.09;5135208;27;20419;-51
2022/07/27 04:30:22;;;;;;;0.67;0.67;;;;;;;23.42;100.00;95003.25;5135220;27;20464;-51
2022/07/27 04:32:51;;;;;;;1.47;1.20;;;;;;;22.93;100.00;94994.91;5135533;27;20943;-51
2022/07/27 04:35:20;;;;;;;1.13;1.03;;;;;;;23.28;100.00;95011.06;5135022;27;20534;-51
2022/07/27 04:37:54;;;;;;;0.80;0.80;;;;;;;23.52;100.00;95010.78;5135225;27;20419;-50
2022/07/27 04:40:31;;;;;;;0.60;0.50;;;;;;;23.57;100.00;95009.72;5135104;27;20418;-50
2022/07/27 04:43:00;;;;;;;1.77;0.70;;;;;;;23.60;100.00;94981.94;5135240;27;20502;-50
2022/07/27 04:45:29;;;;;;;0.73;0.73;;;;;;;23.21;100.00;94917.06;5134924;27;20821;-50
2022/07/27 04:47:57;;;;;;;0.80;0.80;;;;;;;23.95;100.00;95013.13;5135105;27;20438;-50
2022/07/27 04:50:26;;;;;;;0.83;0.83;;;;;;;23.88;100.00;95004.84;5134887;27;20548;-50
2022/07/27 04:52:54;;;;;;;0.53;0.40;;;;;;;23.93;100.00;95006.50;5134962;27;20475;-50
2022/07/27 04:55:23;;;;;;;2.13;1.13;;;;;;;23.78;100.00;95010.88;5134981;27;20497;-50
2022/07/27 04:57:53;;;;;;;0.70;0.60;;;;;;;23.82;100.00;95006.31;5134345;27;20959;-50
2022/07/27 05:00:21;;;;;;;0.57;0.57;;;;;;;23.82;100.00;95002.81;5134976;27;20482;-49
2022/07/27 05:02:49;;;;;;;1.43;1.10;;;;;;;24.05;100.00;95003.59;5134576;27;20480;-50
2022/07/27 05:05:18;;;;;;;1.47;0.80;;;;;;;23.90;100.00;95009.94;5134199;27;20517;-49
2022/07/27 05:07:46;;;;;;;2.43;1.27;;;;;;;23.83;100.00;95007.84;5134626;27;20506;-49
2022/07/27 05:10:15;;;;;;;1.20;1.10;;;;;;;23.68;100.00;95016.88;5134717;27;20450;-50
2022/07/27 05:12:48;;;;;;;1.23;0.50;;;;;;;24.13;100.00;95004.53;5134422;27;20430;-50
2022/07/27 05:15:19;;;;;;;0.80;0.67;;;;;;;24.36;100.00;94992.50;5134414;27;20458;-49
2022/07/27 05:17:48;;;;;;;7.80;2.77;;;;;;;24.11;100.00;95007.59;5134018;27;20554;-49
2022/07/27 05:20:17;;;;;;;1.33;1.33;;;;;;;24.13;100.00;95015.38;5134170;27;20526;-49
2022/07/27 05:22:45;;;;;;;1.30;1.30;;;;;;;24.05;100.00;95009.03;5134047;27;20414;-49
2022/07/27 05:25:13;;;;;;;2.60;2.00;;;;;;;23.40;100.00;95027.19;5134073;27;20429;-50
2022/07/27 05:27:42;;;;;;;2.50;2.40;;;;;;;23.65;100.00;95019.53;5134070;27;20874;-50
2022/07/27 05:30:24;;;;;;;1.23;1.13;;;;;;;24.03;100.00;95027.56;5134114;27;20519;-50
2022/07/27 05:32:53;;;;;;;2.60;2.40;;;;;;;23.75;100.00;95002.69;5134203;27;20434;-50
2022/07/27 05:35:23;;;;;;;1.80;1.70;;;;;;;23.57;100.00;95029.44;5133822;27;20632;-50
2022/07/27 05:37:51;;;;;;;2.20;2.10;;;;;;;23.68;100.00;95032.34;5133706;27;20454;-50
2022/07/27 05:40:19;;;;;;;4.20;3.90;;;;;;;23.75;100.00;95032.47;5134115;27;20476;-50
2022/07/27 05:42:48;;;;;;;2.50;2.30;;;;;;;23.95;100.00;95031.28;5133777;27;20475;-50
2022/07/27 05:45:16;;;;;;;2.27;2.07;;;;;;;23.71;100.00;95029.69;5133919;27;20450;-50
2022/07/27 05:47:46;;;;;;;1.50;1.40;;;;;;;23.68;100.00;95035.81;5133596;27;20526;-50
2022/07/27 05:50:16;;;;;;;2.00;1.90;;;;;;;24.11;100.00;95028.50;5133719;27;20488;-50
2022/07/27 05:52:44;;;;;;;3.07;2.87;;;;;;;24.08;100.00;95030.00;5133552;27;20440;-50
2022/07/27 05:55:13;;;;;;;2.07;1.97;;;;;;;24.10;100.00;95032.31;5133741;27;20422;-50
2022/07/27 05:57:42;;;;;;;2.10;2.00;;;;;;;23.98;100.00;95017.03;5133349;27;20431;-50
2022/07/27 06:00:11;;;;;;;3.60;1.53;;;;;;;24.35;100.00;95022.69;5133416;27;20896;-50
2022/07/27 06:02:41;;;;;;;2.27;2.17;;;;;;;24.29;100.00;95026.81;5133620;27;20853;-50
2022/07/27 06:05:11;;;;;;;3.10;1.70;;;;;;;24.30;100.00;95021.06;5133509;27;20526;-51
2022/07/27 06:07:59;;;;;;;3.70;2.80;;;;;;;25.07;100.00;95020.66;5133352;27;20521;-50
2022/07/27 06:10:29;;;;;;;1.00;1.00;;;;;;;25.69;100.00;95021.78;5132470;27;20415;-50
2022/07/27 06:12:58;;;;;;;2.07;1.97;;;;;;;25.99;100.00;95025.19;5133173;27;20435;-52
2022/07/27 06:15:26;;;;;;;1.00;1.00;;;;;;;26.02;100.00;95031.81;5133405;27;20451;-50
2022/07/27 06:17:55;;;;;;;2.50;2.30;;;;;;;26.19;100.00;95021.13;5132571;27;20903;-51
2022/07/27 06:20:25;;;;;;;1.37;1.27;;;;;;;25.63;100.00;95005.06;5133108;27;20506;-51
2022/07/27 06:22:56;;;;;;;0.70;0.70;;;;;;;26.37;100.00;95015.84;5133065;27;20449;-51
2022/07/27 06:25:25;;;;;;;1.60;1.50;;;;;;;26.17;100.00;95028.88;5132898;27;20513;-51
2022/07/27 06:28:03;;;;;;;2.53;2.33;;;;;;;26.62;100.00;95016.00;5132904;27;20576;-52
2022/07/27 06:30:32;;;;;;;3.60;3.30;;;;;;;26.39;100.00;95014.31;5132617;27;20810;-50
2022/07/27 06:33:03;;;;;;;2.80;1.80;;;;;;;27.07;100.00;95002.72;5133051;27;20431;-50
2022/07/27 06:35:33;;;;;;;3.90;3.47;;;;;;;26.78;100.00;95014.63;5132986;27;20429;-50
2022/07/27 06:38:07;;;;;;;3.30;2.20;;;;;;;26.67;100.00;95013.72;5132555;27;20429;-50
2022/07/27 06:40:35;;;;;;;2.40;2.10;;;;;;;27.08;100.00;95007.00;5132840;27;20854;-50
2022/07/27 06:43:04;;;;;;;1.63;1.53;;;;;;;27.33;100.00;95001.66;5132626;27;20776;-51
2022/07/27 06:45:32;;;;;;;2.60;1.47;;;;;;;27.28;100.00;95007.47;5132578;27;20521;-51
2022/07/27 06:48:00;;;;;;;2.27;2.17;;;;;;;27.25;100.00;95000.06;5132829;27;20419;-51
2022/07/27 06:50:29;;;;;;;1.97;1.87;;;;;;;27.49;100.00;95004.88;5132419;27;20993;-51
2022/07/27 06:52:59;;;;;;;2.57;2.37;;;;;;;27.51;100.00;94999.03;5132697;27;20880;-51
2022/07/27 06:55:27;;;;;;;2.40;2.30;;;;;;;28.01;100.00;94992.53;5132379;27;20466;-51
2022/07/27 06:57:55;;;;;;;1.53;1.50;;;;;;;27.73;100.00;94988.97;5132303;27;20505;-51
2022/07/27 07:00:24;;;;;;;8.53;1.90;;;;;;;28.58;100.00;94989.81;5132484;27;20458;-52
2022/07/27 07:02:55;;;;;;;1.33;1.23;;;;;;;29.10;99.60;94980.75;5132280;28;20470;-52
2022/07/27 07:05:23;;;;;;;3.00;2.27;;;;;;;28.66;96.88;94989.44;5132307;28;20469;-52
2022/07/27 07:07:54;;;;;;;2.27;2.17;;;;;;;28.76;97.47;94983.19;5132537;28;20453;-52
2022/07/27 07:10:26;;;;;;;2.53;2.33;;;;;;;29.61;89.86;94985.63;5132211;28;20426;-53
2022/07/27 07:12:55;;;;;;;2.47;2.27;;;;;;;29.70;92.24;94988.72;5132023;28;20506;-53
2022/07/27 07:15:25;;;;;;;1.43;1.33;;;;;;;30.27;84.45;94980.91;5131923;28;20460;-52
2022/07/27 07:17:54;;;;;;;3.03;1.73;;;;;;;30.71;81.86;94974.69;5131480;28;20517;-51
2022/07/27 07:20:23;;;;;;;0.50;0.50;;;;;;;30.99;76.00;94979.13;5131780;28;20505;-52
2022/07/27 07:22:51;;;;;;;1.60;1.50;;;;;;;29.99;81.08;94970.97;5135631;27;20430;-52
2022/07/27 07:25:20;;;;;;;1.80;1.70;;;;;;;30.24;80.47;94978.19;5136856;27;20475;-52
2022/07/27 07:27:50;;;;;;;1.90;1.80;;;;;;;30.43;80.37;94978.47;5136608;27;20486;-52
2022/07/27 07:30:19;;;;;;;1.80;1.70;;;;;;;30.32;78.88;94975.00;5136115;27;20521;-52
2022/07/27 07:32:48;;;;;;;3.40;1.90;;;;;;;30.54;80.60;94967.41;5136353;27;20488;-52
2022/07/27 07:35:16;;;;;;;3.10;1.37;;;;;;;30.50;81.47;94972.94;5136442;27;20869;-53
2022/07/27 07:37:45;;;;;;;4.30;2.57;;;;;;;30.62;71.96;94974.38;5136249;27;21202;-52
2022/07/27 07:40:18;;;;;;;1.57;1.50;;;;;;;31.41;69.41;94962.16;5136595;27;20434;-52
2022/07/27 07:43:08;;;;;;;1.50;1.40;;;;;;;32.01;67.69;94964.13;5136054;27;20443;-53
2022/07/27 07:45:38;;;;;;;1.57;1.47;;;;;;;32.78;60.97;94955.81;5136384;27;20503;-52
2022/07/27 07:48:20;;;;;;;1.30;1.20;;;;;;;32.67;63.55;94971.69;5136176;27;20441;-52
2022/07/27 07:50:50;;;;;;;1.90;1.23;;;;;;;32.84;58.25;94959.63;5136077;27;20428;-53
2022/07/27 07:53:22;;;;;;;1.80;1.70;;;;;;;32.29;57.83;94957.41;5136602;27;20436;-52
2022/07/27 07:55:51;;;;;;;2.97;2.87;;;;;;;32.41;60.41;94960.31;5135937;27;20421;-53
2022/07/27 07:58:21;;;;;;;1.57;1.47;;;;;;;32.35;59.81;94956.53;5135699;27;20902;-53
2022/07/27 08:00:49;;;;;;;1.17;1.07;;;;;;;32.44;58.75;94953.22;5135885;27;20457;-53
2022/07/27 08:03:18;;;;;;;1.80;1.70;;;;;;;32.47;60.60;94953.19;5135753;27;20517;-53
2022/07/27 08:05:47;;;;;;;4.90;2.00;;;;;;;32.14;60.37;94912.22;5135912;27;20440;-53
2022/07/27 08:08:16;;;;;;;1.77;1.60;;;;;;;32.97;57.57;94952.28;5135896;27;20471;-53
2022/07/27 08:10:45;;;;;;;1.53;1.40;;;;;;;33.04;53.66;94954.94;5135760;27;20435;-56
2022/07/27 08:13:15;;;;;;;3.47;3.27;;;;;;;32.48;53.26;94952.00;5136147;27;20417;-56
2022/07/27 08:15:51;;;;;;;1.83;1.73;;;;;;;32.78;56.81;94945.59;5135857;27;20522;-56
2022/07/27 08:18:20;;;;;;;3.33;1.17;;;;;;;33.42;59.46;94945.13;5135294;27;20577;-56
2022/07/27 08:20:49;;;;;;;4.60;2.50;;;;;;;33.30;55.94;94945.00;5136201;27;20433;-56
2022/07/27 08:23:17;;;;;;;12.23;2.43;;;;;;;33.11;54.64;94941.06;5135450;27;20480;-56
2022/07/27 08:25:46;;;;;;;6.83;3.07;;;;;;;33.55;51.85;94940.56;5135906;27;20433;-56
2022/07/27 08:28:15;;;;;;;1.03;1.00;;;;;;;33.72;51.44;94938.63;5135450;27;20529;-56
2022/07/27 08:30:45;;;;;;;3.97;3.77;;;;;;;33.08;52.42;94926.22;5135395;27;20931;-56
2022/07/27 08:33:15;;;;;;;1.77;1.53;;;;;;;33.92;52.82;94928.34;5134722;27;20462;-56
2022/07/27 08:35:45;;;;;;;5.63;1.57;;;;;;;34.64;48.06;94917.94;5135512;27;20421;-56
2022/07/27 08:38:14;;;;;;;0.97;0.60;;;;;;;35.11;46.87;94914.72;5135436;27;20516;-56
2022/07/27 08:40:43;;;;;;;1.30;1.30;;;;;;;35.34;45.51;94925.47;5135237;27;20500;-54
2022/07/27 08:43:15;;;;;;;1.57;1.57;;;;;;;35.12;48.33;94921.81;5135221;27;20789;-55
2022/07/27 08:45:57;;;;;;;1.87;1.70;;;;;;;35.87;42.98;94916.41;5135285;27;20916;-56
2022/07/27 08:48:28;;;;;;;5.27;1.70;;;;;;;35.91;44.29;94911.53;5135145;27;20625;-55
2022/07/27 08:50:57;;;;;;;6.57;1.97;;;;;;;35.98;44.19;94916.81;5134912;27;20647;-55
2022/07/27 08:53:25;;;;;;;1.90;1.80;;;;;;;35.05;45.45;94920.78;5135006;27;20192;-56
2022/07/27 08:56:14;;;;;;;1.73;1.63;;;;;;;34.88;47.08;94907.47;5134985;27;20215;-56
2022/07/27 08:58:44;;;;;;;1.80;1.70;;;;;;;35.31;47.72;94907.84;5134933;27;20736;-56
2022/07/27 09:01:12;;;;;;;7.70;2.43;;;;;;;35.81;45.26;94898.84;5134852;27;20274;-56
2022/07/27 09:03:42;;;;;;;1.17;1.07;;;;;;;36.47;45.24;94899.88;5134761;27;20184;-56
2022/07/27 09:06:11;;;;;;;4.43;2.10;;;;;;;35.81;45.82;94898.84;5134946;27;20180;-56
2022/07/27 09:08:40;;;;;;;1.57;1.47;;;;;;;35.93;43.52;94891.78;5134768;27;20711;-56
2022/07/27 09:11:15;;;;;;;1.03;0.93;;;;;;;36.77;45.19;94890.97;5134714;27;20188;-56
2022/07/27 09:13:43;;;;;;;1.23;1.23;;;;;;;37.61;40.35;94886.34;5134728;27;20220;-56
2022/07/27 09:16:11;;;;;;;1.50;1.10;;;;;;;37.16;40.32;94873.78;5134565;27;20237;-56
2022/07/27 09:18:49;;;;;;;1.80;1.70;;;;;;;36.88;39.56;94878.34;5134597;27;20242;-56
2022/07/27 09:21:19;;;;;;;1.73;1.63;;;;;;;36.22;42.69;94879.44;5134923;27;20268;-56
2022/07/27 09:23:50;;;;;;;1.83;1.73;;;;;;;36.30;43.25;94889.03;5134598;27;20188;-56
2022/07/27 09:26:20;;;;;;;1.30;0.68;;;;;;;36.74;45.71;94878.06;5134591;27;20177;-56
2022/07/27 09:29:06;;;;;;;0.88;0.88;;;;;;;37.31;43.73;94876.78;5134727;27;20293;-56
2022/07/27 09:31:42;;;;;;;2.72;2.40;;;;;;;36.10;48.65;94877.44;5134732;27;20601;-55
2022/07/27 09:34:14;;;;;;;2.25;2.05;;;;;;;36.44;41.37;94873.94;5134624;27;20293;-56
2022/07/27 09:36:53;;;;;;;2.17;1.98;;;;;;;36.36;40.17;94882.94;5134393;27;20628;-56
2022/07/27 09:39:23;;;;;;;1.48;1.38;;;;;;;37.36;39.41;94871.44;5134302;27;20650;-56
2022/07/27 09:41:54;;;;;;;2.63;2.53;;;;;;;37.08;39.33;94872.50;5134719;27;20230;-56
2022/07/27 09:44:33;;;;;;;1.30;1.20;;;;;;;37.88;37.24;94869.88;5133337;27;20191;-56
2022/07/27 09:47:25;;;;;;;1.63;1.52;;;;;;;36.99;36.02;94858.63;5134375;27;20266;-55
2022/07/27 09:49:57;;;;;;;2.17;1.38;;;;;;;37.56;37.64;94864.81;5134135;27;20191;-55
2022/07/27 09:52:28;;;;;;;6.88;2.13;;;;;;;37.47;37.41;94869.06;5133885;27;20257;-55
2022/07/27 09:55:02;;;;;;;3.92;1.25;;;;;;;37.81;37.53;94812.03;5133812;27;20599;-55
2022/07/27 09:57:31;;;;;;;1.00;1.00;;;;;;;38.34;36.22;94863.25;5133966;27;20588;-56
2022/07/27 10:00:10;;;;;;;1.83;1.73;;;;;;;39.07;35.46;94855.72;5133982;27;20742;-55
2022/07/27 10:02:40;;;;;;;2.15;1.80;;;;;;;38.62;35.96;94856.50;5133636;27;20235;-55
2022/07/27 10:05:10;;;;;;;1.25;1.20;;;;;;;38.55;36.27;94851.28;5133701;27;20184;-56
2022/07/27 10:07:40;;;;;;;1.40;1.30;;;;;;;38.55;36.11;94851.28;5133600;27;20180;-56
2022/07/27 10:10:09;;;;;;;1.30;1.20;;;;;;;38.31;36.66;94842.00;5133503;27;20190;-55
2022/07/27 10:12:38;;;;;;;1.02;0.80;;;;;;;38.66;36.69;94845.25;5133786;27;20203;-56
2022/07/27 10:15:07;;;;;;;0.73;0.73;;;;;;;39.26;35.63;94845.38;5133006;27;20283;-56
2022/07/27 10:17:48;;;;;;;2.47;2.38;;;;;;;38.15;36.63;94842.28;5089186;27;20526;-56
2022/07/27 10:20:18;;;;;;;2.28;2.13;;;;;;;38.49;37.67;94844.78;5089268;28;20278;-55
2022/07/27 10:22:52;;;;;;;1.50;1.40;;;;;;;39.07;34.56;94843.84;5089521;28;20638;-57
2022/07/27 10:25:21;;;;;;;1.35;1.25;;;;;;;39.66;32.62;94823.69;5089286;28;20190;-57
2022/07/27 10:28:09;;;;;;;1.55;1.45;;;;;;;39.47;33.61;94822.19;5088972;28;20601;-56
2022/07/27 10:30:37;;;;;;;1.08;1.08;;;;;;;39.52;34.41;94815.25;5088981;28;20545;-56
2022/07/27 10:33:15;;;;;;;3.88;3.67;;;;;;;39.25;30.92;94816.13;5088936;28;20196;-54
2022/07/27 10:35:44;;;;;;;4.60;1.15;;;;;;;38.91;30.23;94817.25;5088924;28;20675;-56
2022/07/27 10:38:15;;;;;;;0.98;0.80;;;;;;;39.79;32.81;94813.16;5088978;28;20205;-55
2022/07/27 10:40:44;;;;;;;1.42;1.33;;;;;;;39.19;25.75;94807.66;5089147;28;20215;-56
2022/07/27 10:43:22;;;;;;;2.15;1.05;;;;;;;39.67;28.89;94757.88;5089151;28;20613;-56
2022/07/27 10:45:52;;;;;;;0.98;0.88;;;;;;;40.25;26.02;94808.13;5088759;28;20278;-54
2022/07/27 10:48:38;;;;;;;1.23;1.13;;;;;;;39.52;24.12;94806.94;5089013;28;20216;-55
2022/07/27 10:51:15;;;;;;;1.00;1.00;;;;;;;39.00;25.52;94813.69;5088650;28;20191;-55
2022/07/27 10:53:46;;;;;;;1.35;1.25;;;;;;;39.58;26.51;94800.28;5088976;28;20526;-55
2022/07/27 10:56:48;;;;;;;1.35;0.85;;;;;;;39.66;27.25;94798.72;5087528;28;20234;-56
2022/07/27 10:59:48;;;;;;;1.83;1.73;;;;;;;39.81;26.95;94790.47;5088572;28;20253;-56
2022/07/27 11:02:40;;;;;;;0.90;0.82;;;;;;;40.66;25.47;94784.16;5088376;28;20202;-56
2022/07/27 11:05:11;;;;;;;1.00;1.00;;;;;;;39.22;25.93;94731.88;5088805;28;20270;-55
2022/07/27 11:08:00;;;;;;;1.13;1.13;;;;;;;39.17;27.98;94779.63;5088235;28;20196;-55
2022/07/27 11:10:49;;;;;;;0.73;0.73;;;;;;;39.44;27.49;94784.31;5088145;28;20196;-56
2022/07/27 11:13:19;;;;;;;0.77;0.77;;;;;;;40.50;27.52;94779.88;5088500;28;20216;-55
2022/07/27 11:15:52;;;;;;;1.27;1.27;;;;;;;39.76;26.71;94778.00;5088060;28;20607;-55
2022/07/27 11:18:27;;;;;;;1.35;1.02;;;;;;;40.19;26.18;94765.56;5087960;28;20245;-56
2022/07/27 11:21:15;;;;;;;1.20;1.20;;;;;;;39.57;26.19;94782.06;5088130;28;20748;-56
2022/07/27 11:23:54;;;;;;;0.85;0.85;;;;;;;39.70;25.87;94784.66;5088204;28;20195;-55
2022/07/27 11:26:25;;;;;;;1.63;1.52;;;;;;;39.32;25.76;94752.00;5087902;28;20250;-54
2022/07/27 11:28:53;;;;;;;1.05;1.05;;;;;;;39.84;26.17;94776.44;5075340;28;20707;-54
2022/07/27 11:31:22;;;;;;;1.02;1.02;;;;;;;40.39;25.26;94773.28;5074892;28;20212;-54
2022/07/27 11:34:12;;;;;;;1.50;1.40;;;;;;;40.13;25.24;94717.47;5074336;28;20289;-55
2022/07/27 11:36:47;;;;;;;1.48;1.38;;;;;;;40.06;25.15;94759.50;5073385;28;20676;-55
2022/07/27 11:39:17;;;;;;;1.67;1.58;;;;;;;39.94;25.22;94766.03;5074204;28;20633;-55
2022/07/27 11:42:05;;;;;;;2.47;0.82;;;;;;;39.62;24.95;94767.59;5074351;28;20537;-55
2022/07/27 11:44:41;;;;;;;1.98;1.73;;;;;;;40.31;24.72;94763.78;5074350;28;20212;-56
2022/07/27 11:47:15;;;;;;;1.73;1.63;;;;;;;39.73;25.31;94759.53;5074491;28;20207;-55
2022/07/27 11:49:44;;;;;;;2.83;2.72;;;;;;;39.78;26.92;94761.66;5074056;28;20732;-55